createdAt,value
2022-11-10T00:01:10.508Z,20.20
2022-11-10T00:03:40.230Z,18.33
2022-11-10T00:06:09.573Z,14.63
2022-11-10T00:08:36.644Z,19.83
2022-11-10T00:11:07.947Z,16.40
2022-11-10T00:13:57.481Z,16.67
2022-11-10T00:16:43.051Z,16.40
2022-11-10T00:19:10.203Z,18.43
2022-11-10T00:21:37.948Z,16.47
2022-11-10T00:24:05.392Z,12.37
2022-11-10T00:26:32.277Z,17.83
2022-11-10T00:28:59.239Z,21.17
2022-11-10T00:31:28.477Z,18.33
2022-11-10T00:33:55.855Z,19.07
2022-11-10T00:36:23.635Z,14.57
2022-11-10T00:38:51.737Z,18.83
2022-11-10T00:41:18.675Z,21.00
2022-11-10T00:43:45.576Z,19.50
2022-11-10T00:46:12.917Z,16.87
2022-11-10T00:48:39.842Z,21.27
2022-11-10T00:51:07.455Z,25.17
2022-11-10T00:53:34.373Z,23.90
2022-11-10T00:56:01.439Z,15.73
2022-11-10T00:58:28.320Z,18.90
2022-11-10T01:01:05.675Z,19.47
2022-11-10T01:03:33.694Z,19.43
2022-11-10T01:06:06.869Z,22.47
2022-11-10T01:08:33.809Z,20.63
2022-11-10T01:11:15.263Z,18.10
2022-11-10T01:13:43.103Z,29.33
2022-11-10T01:16:17.079Z,20.87
2022-11-10T01:18:44.016Z,20.73
2022-11-10T01:21:10.992Z,16.30
2022-11-10T01:23:37.948Z,18.93
2022-11-10T01:26:07.072Z,17.50
2022-11-10T01:28:36.040Z,18.77
2022-11-10T01:31:08.833Z,16.03
2022-11-10T01:33:36.894Z,15.97
2022-11-10T01:36:05.184Z,17.77
2022-11-10T01:38:36.393Z,15.50
2022-11-10T01:41:07.356Z,21.70
2022-11-10T01:43:34.479Z,17.33
2022-11-10T01:46:04.233Z,12.77
2022-11-10T01:49:03.635Z,18.90
2022-11-10T01:51:52.669Z,16.63
2022-11-10T01:54:26.122Z,24.50
2022-11-10T01:56:59.385Z,21.13
2022-11-10T01:59:31.002Z,19.60
2022-11-10T02:02:12.579Z,14.87
2022-11-10T02:04:41.562Z,14.73
2022-11-10T02:07:09.813Z,20.70
2022-11-10T02:09:36.928Z,20.87
2022-11-10T02:12:04.339Z,24.23
2022-11-10T02:14:31.327Z,19.07
2022-11-10T02:16:58.715Z,17.40
2022-11-10T02:19:26.883Z,12.87
2022-11-10T02:21:53.804Z,20.23
2022-11-10T02:24:20.707Z,21.57
2022-11-10T02:26:54.075Z,11.03
2022-11-10T02:29:21.187Z,23.43
2022-11-10T02:31:48.078Z,20.30
2022-11-10T02:34:15.568Z,19.40
2022-11-10T02:36:42.452Z,15.93
2022-11-10T02:39:09.435Z,20.53
2022-11-10T02:41:36.357Z,13.50
2022-11-10T02:44:04.531Z,14.37
2022-11-10T02:46:31.469Z,14.67
2022-11-10T02:48:58.457Z,22.33
2022-11-10T02:51:25.346Z,18.40
2022-11-10T02:53:52.256Z,16.93
2022-11-10T02:56:19.160Z,19.77
2022-11-10T02:58:46.162Z,20.47
2022-11-10T03:01:13.136Z,19.97
2022-11-10T03:03:40.151Z,23.03
2022-11-10T03:06:07.103Z,20.03
2022-11-10T03:08:34.049Z,21.93
2022-11-10T03:11:00.948Z,12.57
2022-11-10T03:13:40.174Z,16.23
2022-11-10T03:16:14.774Z,19.07
2022-11-10T03:18:41.662Z,18.67
2022-11-10T03:21:08.619Z,17.63
2022-11-10T03:23:36.477Z,14.40
2022-11-10T03:26:07.337Z,21.83
2022-11-10T03:28:34.878Z,14.57
2022-11-10T03:31:01.793Z,19.80
2022-11-10T03:33:28.698Z,21.53
2022-11-10T03:35:55.778Z,16.17
2022-11-10T03:38:22.653Z,14.77
2022-11-10T03:41:17.469Z,22.17
2022-11-10T03:43:37.973Z,20.07
2022-11-10T03:46:04.928Z,17.23
2022-11-10T03:48:31.808Z,16.63
2022-11-10T03:50:58.707Z,22.90
2022-11-10T03:53:25.712Z,22.63
2022-11-10T03:55:52.687Z,21.30
2022-11-10T03:58:19.664Z,20.50
2022-11-10T04:00:46.556Z,22.73
2022-11-10T04:03:13.548Z,16.80
2022-11-10T04:05:58.772Z,24.30
2022-11-10T04:08:44.170Z,17.77
2022-11-10T04:11:11.054Z,15.03
2022-11-10T04:13:56.426Z,22.30
2022-11-10T04:16:23.362Z,22.13
2022-11-10T04:18:50.280Z,16.90
2022-11-10T04:21:17.240Z,17.30
2022-11-10T04:23:44.148Z,20.87
2022-11-10T04:26:29.044Z,20.07
2022-11-10T04:28:59.868Z,16.73
2022-11-10T04:31:30.248Z,17.50
2022-11-10T04:33:58.052Z,19.70
2022-11-10T04:36:28.732Z,23.27
2022-11-10T04:38:56.828Z,24.77
2022-11-10T04:41:26.806Z,17.53
2022-11-10T04:43:54.159Z,19.17
2022-11-10T04:46:31.302Z,20.43
2022-11-10T04:48:59.123Z,18.30
2022-11-10T04:51:47.127Z,19.57
2022-11-10T04:54:14.121Z,19.97
2022-11-10T04:56:41.138Z,27.80
2022-11-10T04:59:08.357Z,22.70
2022-11-10T05:01:35.429Z,22.23
2022-11-10T05:04:02.469Z,13.37
2022-11-10T05:06:29.673Z,21.93
2022-11-10T05:08:56.640Z,20.67
2022-11-10T05:11:23.592Z,18.30
2022-11-10T05:13:50.932Z,24.87
2022-11-10T05:16:18.019Z,10.73
2022-11-10T05:18:45.034Z,19.47
2022-11-10T05:21:11.911Z,22.50
2022-11-10T05:23:38.938Z,18.43
2022-11-10T05:26:15.142Z,23.73
2022-11-10T05:28:44.789Z,27.47
2022-11-10T05:31:12.429Z,16.73
2022-11-10T05:33:39.951Z,18.07
2022-11-10T05:36:08.181Z,22.83
2022-11-10T05:38:40.214Z,19.23
2022-11-10T05:41:10.552Z,17.60
2022-11-10T05:43:37.527Z,18.77
2022-11-10T05:46:04.463Z,17.60
2022-11-10T05:48:31.331Z,21.23
2022-11-10T05:50:58.270Z,20.20
2022-11-10T05:53:25.461Z,12.50
2022-11-10T05:55:52.519Z,24.17
2022-11-10T05:58:19.410Z,20.20
2022-11-10T06:00:46.347Z,23.13
2022-11-10T06:03:16.658Z,20.80
2022-11-10T06:05:43.936Z,14.10
2022-11-10T06:08:12.087Z,25.87
2022-11-10T06:10:40.344Z,18.10
2022-11-10T06:13:07.655Z,21.77
2022-11-10T06:15:34.612Z,20.43
2022-11-10T06:18:02.165Z,21.33
2022-11-10T06:20:29.744Z,25.00
2022-11-10T06:23:08.140Z,21.30
2022-11-10T06:25:36.739Z,19.53
2022-11-10T06:28:04.712Z,13.77
2022-11-10T06:30:34.683Z,23.30
2022-11-10T06:33:02.235Z,17.10
2022-11-10T06:35:30.108Z,15.47
2022-11-10T06:38:09.463Z,18.77
2022-11-10T06:40:36.369Z,24.50
2022-11-10T06:43:03.455Z,15.60
2022-11-10T06:45:30.651Z,23.40
2022-11-10T06:48:16.594Z,21.63
2022-11-10T06:50:43.520Z,19.77
2022-11-10T06:53:11.288Z,20.03
2022-11-10T06:55:38.223Z,24.43
2022-11-10T06:58:05.295Z,22.37
2022-11-10T07:00:32.193Z,18.53
2022-11-10T07:03:01.366Z,17.80
2022-11-10T07:05:28.310Z,21.97
2022-11-10T07:07:55.235Z,16.70
2022-11-10T07:10:22.120Z,17.53
2022-11-10T07:12:49.175Z,19.23
2022-11-10T07:15:16.155Z,11.97
2022-11-10T07:17:43.219Z,21.77
2022-11-10T07:20:10.653Z,26.87
2022-11-10T07:22:38.066Z,26.50
2022-11-10T07:25:05.600Z,20.40
2022-11-10T07:27:32.530Z,14.97
2022-11-10T07:29:59.396Z,21.23
2022-11-10T07:32:26.411Z,21.53
2022-11-10T07:34:53.266Z,18.03
2022-11-10T07:37:20.172Z,20.33
2022-11-10T07:39:47.038Z,16.47
2022-11-10T07:42:14.095Z,20.07
2022-11-10T07:44:40.971Z,12.60
2022-11-10T07:47:08.044Z,17.60
2022-11-10T07:49:34.951Z,15.10
2022-11-10T07:52:01.955Z,18.87
2022-11-10T07:54:28.857Z,12.70
2022-11-10T07:56:55.756Z,11.67
2022-11-10T07:59:22.694Z,12.57
2022-11-10T08:01:49.629Z,15.47
2022-11-10T08:04:16.633Z,16.67
2022-11-10T08:06:43.580Z,14.77
2022-11-10T08:09:10.561Z,11.80
2022-11-10T08:11:37.608Z,19.47
2022-11-10T08:14:04.652Z,20.37
2022-11-10T08:16:31.539Z,15.67
2022-11-10T08:18:58.733Z,11.97
2022-11-10T08:21:25.647Z,16.17
2022-11-10T08:23:52.549Z,13.23
2022-11-10T08:26:19.421Z,9.93
2022-11-10T08:28:46.875Z,13.93
2022-11-10T08:31:13.779Z,19.60
2022-11-10T08:33:40.712Z,16.00
2022-11-10T08:36:08.382Z,13.30
2022-11-10T08:38:35.255Z,13.10
2022-11-10T08:41:02.137Z,16.80
2022-11-10T08:43:29.025Z,15.83
2022-11-10T08:45:59.143Z,18.30
2022-11-10T08:48:26.025Z,19.00
2022-11-10T08:50:52.978Z,15.80
2022-11-10T08:53:25.138Z,16.53
2022-11-10T08:55:53.444Z,19.00
2022-11-10T08:58:23.701Z,19.43
2022-11-10T09:00:51.287Z,26.87
2022-11-10T09:03:21.382Z,17.57
2022-11-10T09:05:56.662Z,24.47
2022-11-10T09:08:25.489Z,21.80
2022-11-10T09:10:52.801Z,17.30
2022-11-10T09:13:29.193Z,23.23
2022-11-10T09:16:02.125Z,19.53
2022-11-10T09:18:29.729Z,18.70
2022-11-10T09:20:57.054Z,20.17
2022-11-10T09:23:25.266Z,19.53
2022-11-10T09:25:55.227Z,22.73
2022-11-10T09:28:23.522Z,19.50
2022-11-10T09:30:52.175Z,22.80
2022-11-10T09:33:19.351Z,22.50
2022-11-10T09:35:46.397Z,17.83
2022-11-10T09:38:13.312Z,24.27
2022-11-10T09:40:59.241Z,21.43
2022-11-10T09:43:59.478Z,20.17
2022-11-10T09:46:40.185Z,19.33
2022-11-10T09:49:30.874Z,21.20
2022-11-10T09:52:00.404Z,19.63
2022-11-10T09:54:51.152Z,15.93
2022-11-10T09:57:24.005Z,28.63
2022-11-10T09:59:51.413Z,17.80
2022-11-10T10:02:24.507Z,20.53
2022-11-10T10:05:18.840Z,14.57
2022-11-10T10:08:02.723Z,15.70
2022-11-10T10:10:50.276Z,15.90
2022-11-10T10:13:45.938Z,16.33
2022-11-10T10:16:36.581Z,23.63
2022-11-10T10:19:27.534Z,16.83
2022-11-10T10:22:09.264Z,15.50
2022-11-10T10:24:38.218Z,20.00
2022-11-10T10:27:09.931Z,21.47
2022-11-10T10:29:43.921Z,17.20
2022-11-10T10:32:14.388Z,13.90
2022-11-10T10:34:43.572Z,18.23
2022-11-10T10:37:28.798Z,22.13
2022-11-10T10:39:56.114Z,20.17
2022-11-10T10:42:36.173Z,16.20
2022-11-10T10:45:28.711Z,15.13
2022-11-10T10:47:57.484Z,14.17
2022-11-10T10:50:37.046Z,18.07
2022-11-10T10:53:24.652Z,13.17
2022-11-10T10:56:03.563Z,19.17
2022-11-10T10:58:35.338Z,21.50
2022-11-10T11:01:21.741Z,14.33
2022-11-10T11:03:53.023Z,18.43
2022-11-10T11:06:27.651Z,15.67
2022-11-10T11:08:59.892Z,10.83
2022-11-10T11:11:30.564Z,20.20
2022-11-10T11:14:25.874Z,14.43
2022-11-10T11:17:22.728Z,11.33
2022-11-10T11:19:59.789Z,14.95
2022-11-10T11:22:48.294Z,13.47
2022-11-10T11:25:37.827Z,12.18
2022-11-10T11:28:41.678Z,14.43
2022-11-10T11:31:17.676Z,13.20
2022-11-10T11:34:13.377Z,15.18
2022-11-10T11:37:10.546Z,14.48
2022-11-10T11:40:14.997Z,10.90
2022-11-10T11:43:31.777Z,10.02
2022-11-10T11:46:49.267Z,12.70
2022-11-10T11:49:41.359Z,12.03
2022-11-10T11:52:41.236Z,9.43
2022-11-10T11:55:31.246Z,7.53
2022-11-10T11:58:39.460Z,8.33
2022-11-10T12:01:34.148Z,9.17
2022-11-10T12:04:29.264Z,9.53
2022-11-10T12:07:10.421Z,8.20
2022-11-10T12:10:02.538Z,11.53
2022-11-10T12:13:09.207Z,8.50
2022-11-10T12:15:50.262Z,10.20
2022-11-10T12:18:31.469Z,13.68
2022-11-10T12:21:01.351Z,10.23
2022-11-10T12:23:59.499Z,12.45
2022-11-10T12:27:01.173Z,8.97
2022-11-10T12:29:39.876Z,9.15
2022-11-10T12:32:25.119Z,13.75
2022-11-10T12:35:26.545Z,12.07
2022-11-10T12:38:05.260Z,10.27
2022-11-10T12:40:41.798Z,12.38
2022-11-10T12:43:57.305Z,9.40
2022-11-10T12:46:24.221Z,14.90
2022-11-10T12:49:19.950Z,11.55
2022-11-10T12:52:30.823Z,6.88
2022-11-10T12:54:57.985Z,8.73
2022-11-10T12:57:27.415Z,12.52
2022-11-10T13:00:00.885Z,11.67
2022-11-10T13:02:34.667Z,6.90
2022-11-10T13:05:27.088Z,9.30
2022-11-10T13:08:16.818Z,9.63
2022-11-10T13:11:24.763Z,8.53
2022-11-10T13:14:00.151Z,9.53
2022-11-10T13:16:39.183Z,9.98
2022-11-10T13:19:11.247Z,12.32
2022-11-10T13:21:53.436Z,8.95
2022-11-10T13:24:30.038Z,8.40
2022-11-10T13:26:59.833Z,8.43
2022-11-10T13:29:37.350Z,6.97
2022-11-10T13:32:33.299Z,6.53
2022-11-10T13:35:28.112Z,8.60
2022-11-10T13:37:57.055Z,11.33
2022-11-10T13:40:23.984Z,12.33
2022-11-10T13:43:00.028Z,10.70
2022-11-10T13:45:33.088Z,11.37
2022-11-10T13:48:11.927Z,10.48
2022-11-10T13:51:20.516Z,13.83
2022-11-10T13:54:19.537Z,8.70
2022-11-10T13:57:17.957Z,11.50
2022-11-10T13:59:55.675Z,5.70
2022-11-10T14:02:34.769Z,10.13
2022-11-10T14:05:04.156Z,6.63
2022-11-10T14:07:39.483Z,11.60
2022-11-10T14:10:17.818Z,8.30
2022-11-10T14:13:02.816Z,7.33
2022-11-10T14:15:45.262Z,9.20
2022-11-10T14:18:25.147Z,9.83
2022-11-10T14:20:58.560Z,8.67
2022-11-10T14:23:54.053Z,10.73
2022-11-10T14:26:51.784Z,9.10
2022-11-10T14:29:39.290Z,11.00
2022-11-10T14:32:19.844Z,9.57
2022-11-10T14:34:57.769Z,9.37
2022-11-10T14:37:28.233Z,8.80
2022-11-10T14:40:01.650Z,9.17
2022-11-10T14:42:33.862Z,10.90
2022-11-10T14:45:23.675Z,9.20
2022-11-10T14:47:55.850Z,7.80
2022-11-10T14:50:34.629Z,10.07
2022-11-10T14:53:08.105Z,8.83
2022-11-10T14:55:36.732Z,9.73
2022-11-10T14:58:13.533Z,11.57
2022-11-10T15:00:42.884Z,9.70
2022-11-10T15:03:18.738Z,13.93
2022-11-10T15:05:46.001Z,7.83
2022-11-10T15:08:16.308Z,11.33
2022-11-10T15:10:47.051Z,11.37
2022-11-10T15:13:13.891Z,10.52
2022-11-10T15:15:41.795Z,12.63
2022-11-10T15:18:30.019Z,7.20
2022-11-10T15:21:04.885Z,10.90
2022-11-10T15:23:37.917Z,11.23
2022-11-10T15:26:06.117Z,10.50
2022-11-10T15:28:36.854Z,11.53
2022-11-10T15:31:11.062Z,8.83
2022-11-10T15:33:39.412Z,9.57
2022-11-10T15:36:27.811Z,10.40
2022-11-10T15:39:18.177Z,7.90
2022-11-10T15:41:47.543Z,11.77
2022-11-10T15:44:22.053Z,12.50
2022-11-10T15:46:55.753Z,7.07
2022-11-10T15:49:29.911Z,9.83
2022-11-10T15:52:03.573Z,14.83
2022-11-10T15:54:35.814Z,14.60
2022-11-10T15:57:02.801Z,12.13
2022-11-10T15:59:29.801Z,12.17
2022-11-10T16:01:57.274Z,8.27
2022-11-10T16:04:27.397Z,11.63
2022-11-10T16:06:54.388Z,11.27
2022-11-10T16:09:21.346Z,12.80
2022-11-10T16:11:48.325Z,12.10
2022-11-10T16:14:17.090Z,11.23
2022-11-10T16:16:44.458Z,13.47
2022-11-10T16:19:12.641Z,11.90
2022-11-10T16:21:39.745Z,11.23
2022-11-10T16:24:06.920Z,12.60
2022-11-10T16:26:35.352Z,13.97
2022-11-10T16:29:02.407Z,11.47
2022-11-10T16:31:31.715Z,11.07
2022-11-10T16:33:58.680Z,15.13
2022-11-10T16:36:30.958Z,13.30
2022-11-10T16:39:02.051Z,12.80
2022-11-10T16:41:28.989Z,12.53
2022-11-10T16:43:55.986Z,10.20
2022-11-10T16:46:29.129Z,9.20
2022-11-10T16:49:01.133Z,8.43
2022-11-10T16:51:40.923Z,16.13
2022-11-10T16:54:13.786Z,9.27
2022-11-10T16:56:40.658Z,18.37
2022-11-10T16:59:07.637Z,10.97
2022-11-10T17:01:36.261Z,15.10
2022-11-10T17:04:09.033Z,9.73
2022-11-10T17:06:36.623Z,10.93
2022-11-10T17:09:17.153Z,15.00
2022-11-10T17:11:44.479Z,11.03
2022-11-10T17:14:13.416Z,11.63
2022-11-10T17:16:43.911Z,14.47
2022-11-10T17:19:23.509Z,8.77
2022-11-10T17:21:53.873Z,13.67
2022-11-10T17:24:21.623Z,12.37
2022-11-10T17:26:49.856Z,13.00
2022-11-10T17:29:21.202Z,9.47
2022-11-10T17:31:50.352Z,12.50
2022-11-10T17:34:17.396Z,15.43
2022-11-10T17:36:44.519Z,12.20
2022-11-10T17:39:15.028Z,8.87
2022-11-10T17:41:42.020Z,19.17
2022-11-10T17:44:18.244Z,14.33
2022-11-10T17:46:45.139Z,16.33
2022-11-10T17:49:12.213Z,12.73
2022-11-10T17:51:40.474Z,15.43
2022-11-10T17:54:14.122Z,12.57
2022-11-10T17:56:41.200Z,13.93
2022-11-10T17:59:08.123Z,12.57
2022-11-10T18:01:35.130Z,10.83
2022-11-10T18:04:02.068Z,8.70
2022-11-10T18:06:29.087Z,13.10
2022-11-10T18:08:56.079Z,14.93
2022-11-10T18:11:22.964Z,13.33
2022-11-10T18:13:50.110Z,10.07
2022-11-10T18:16:17.010Z,13.60
2022-11-10T18:18:43.913Z,10.97
2022-11-10T18:21:11.023Z,9.03
2022-11-10T18:23:37.911Z,10.43
2022-11-10T18:26:07.245Z,13.50
2022-11-10T18:28:35.483Z,9.87
2022-11-10T18:31:12.553Z,14.97
2022-11-10T18:33:39.540Z,13.57
2022-11-10T18:36:06.982Z,14.57
2022-11-10T18:38:33.959Z,14.07
2022-11-10T18:41:25.707Z,10.07
2022-11-10T18:43:52.884Z,11.57
2022-11-10T18:46:19.916Z,14.13
2022-11-10T18:48:47.774Z,15.37
2022-11-10T18:51:15.720Z,13.47
2022-11-10T18:53:42.632Z,14.07
2022-11-10T18:56:09.527Z,9.13
2022-11-10T18:58:36.439Z,14.53
2022-11-10T19:01:08.968Z,14.03
2022-11-10T19:03:37.430Z,13.80
2022-11-10T19:06:05.746Z,13.57
2022-11-10T19:08:32.666Z,10.47
2022-11-10T19:10:59.886Z,17.47
2022-11-10T19:13:26.951Z,14.87
2022-11-10T19:15:55.760Z,15.80
2022-11-10T19:18:22.701Z,13.70
2022-11-10T19:20:49.612Z,18.53
2022-11-10T19:23:17.735Z,14.03
2022-11-10T19:25:44.726Z,17.83
2022-11-10T19:28:11.715Z,16.40
2022-11-10T19:30:39.325Z,10.03
2022-11-10T19:33:06.419Z,16.50
2022-11-10T19:35:33.366Z,19.27
2022-11-10T19:38:00.309Z,19.13
2022-11-10T19:40:27.215Z,16.93
2022-11-10T19:42:54.176Z,17.40
2022-11-10T19:45:21.093Z,19.10
2022-11-10T19:47:48.018Z,15.60
2022-11-10T19:50:15.201Z,17.43
2022-11-10T19:52:42.143Z,15.77
2022-11-10T19:55:09.049Z,20.67
2022-11-10T19:57:35.955Z,17.40
2022-11-10T20:00:03.548Z,12.73
2022-11-10T20:02:30.530Z,19.13
2022-11-10T20:05:12.388Z,16.27
2022-11-10T20:07:58.434Z,17.83
2022-11-10T20:10:25.400Z,21.43
2022-11-10T20:12:52.422Z,20.13
2022-11-10T20:15:19.388Z,18.63
2022-11-10T20:17:46.315Z,17.73
2022-11-10T20:20:13.629Z,21.53
2022-11-10T20:22:40.749Z,21.70
2022-11-10T20:25:08.913Z,25.80
2022-11-10T20:27:36.071Z,23.57
2022-11-10T20:30:03.215Z,25.70
2022-11-10T20:32:31.395Z,21.00
2022-11-10T20:35:00.630Z,27.93
2022-11-10T20:37:27.576Z,26.13
2022-11-10T20:39:54.518Z,32.90
2022-11-10T20:42:21.454Z,32.33
2022-11-10T20:44:48.353Z,27.17
2022-11-10T20:47:15.400Z,29.30
2022-11-10T20:49:42.370Z,33.23
2022-11-10T20:52:09.287Z,28.67
2022-11-10T20:54:36.205Z,27.83
2022-11-10T20:57:03.146Z,28.70
2022-11-10T20:59:30.206Z,25.07
2022-11-10T21:01:57.277Z,37.10
2022-11-10T21:04:24.259Z,32.80
2022-11-10T21:06:51.301Z,33.70
2022-11-10T21:09:18.297Z,36.53
2022-11-10T21:12:04.035Z,37.40
2022-11-10T21:14:30.948Z,37.17
2022-11-10T21:16:57.967Z,34.53
2022-11-10T21:19:24.924Z,38.43
2022-11-10T21:21:52.371Z,39.30
2022-11-10T21:24:19.670Z,42.57
2022-11-10T21:26:46.532Z,43.17
2022-11-10T21:29:13.459Z,48.37
2022-11-10T21:31:40.398Z,49.97
2022-11-10T21:34:07.284Z,42.70
2022-11-10T21:36:34.223Z,49.43
2022-11-10T21:39:01.208Z,51.00
2022-11-10T21:41:28.318Z,48.87
2022-11-10T21:43:55.248Z,47.77
2022-11-10T21:46:22.377Z,47.63
2022-11-10T21:48:52.731Z,50.00
2022-11-10T21:51:21.085Z,50.43
2022-11-10T21:53:48.919Z,55.10
2022-11-10T21:56:15.982Z,50.83
2022-11-10T21:58:43.052Z,52.83
2022-11-10T22:01:16.771Z,51.20
2022-11-10T22:03:43.890Z,43.83
2022-11-10T22:06:18.936Z,50.60
2022-11-10T22:08:47.794Z,55.17
2022-11-10T22:11:35.398Z,50.50
2022-11-10T22:14:21.844Z,56.70
2022-11-10T22:17:10.131Z,46.63
2022-11-10T22:19:37.594Z,47.97
2022-11-10T22:22:04.651Z,44.57
2022-11-10T22:24:31.889Z,43.73
2022-11-10T22:27:04.377Z,43.93
2022-11-10T22:29:33.496Z,40.80
2022-11-10T22:32:01.442Z,40.67
2022-11-10T22:34:28.402Z,40.90
2022-11-10T22:36:55.334Z,41.50
2022-11-10T22:39:22.270Z,41.30
2022-11-10T22:42:08.112Z,38.30
2022-11-10T22:44:35.005Z,36.80
2022-11-10T22:47:02.042Z,40.07
2022-11-10T22:49:28.938Z,33.97
2022-11-10T22:51:55.891Z,39.23
2022-11-10T22:54:24.087Z,38.80
2022-11-10T22:56:51.602Z,36.10
2022-11-10T22:59:19.498Z,36.73
2022-11-10T23:01:46.691Z,36.93
2022-11-10T23:04:15.866Z,35.13
2022-11-10T23:06:43.199Z,34.40
2022-11-10T23:09:10.220Z,35.70
2022-11-10T23:11:37.187Z,36.33
2022-11-10T23:14:04.196Z,37.37
2022-11-10T23:16:34.284Z,37.93
2022-11-10T23:19:01.793Z,46.77
2022-11-10T23:21:30.651Z,44.67
2022-11-10T23:23:57.851Z,53.00
2022-11-10T23:26:34.734Z,49.40
2022-11-10T23:29:01.640Z,43.60
2022-11-10T23:31:28.725Z,38.73
2022-11-10T23:33:57.526Z,38.53
2022-11-10T23:36:26.668Z,37.93
2022-11-10T23:38:55.305Z,39.57
2022-11-10T23:41:28.986Z,42.50
2022-11-10T23:43:56.178Z,34.33
2022-11-10T23:46:23.062Z,35.50
2022-11-10T23:48:50.158Z,35.87
2022-11-10T23:51:17.497Z,36.00
2022-11-10T23:53:44.450Z,39.33
2022-11-10T23:56:13.651Z,33.90
2022-11-10T23:58:41.164Z,31.77
